Barkhamsted, Connecticut
Current Conditions -  °F | °C
As of 1:51 PM on Friday 21 Nov 2014 (Local Time) from KBDL Reporting Station
Broken Clouds Broken Clouds  
Wind Chill: 25°   Ceiling: 5000
Heat Index: 35°   Visibility: 10mi
Dew Point: 10°   Wind: 17mph
Humidity: 35%   Direction: 310°NW
Pressure: 30.23"   Gusts: 29mph
Location:  41.9398°N, 72.9667°W
Report Text: KBDL 211851Z 31015G25KT 10SM BKN050 02/M12 A3023 RMK AO2 PK WND 32027/1813 SLP239 T00171122
Loading
Personal Weather Stations






























Interactive Weather Map New forecast layout! Learn more

10-Day Weather Forecast

Advertisements
Track Severe Weather on mobile